createdAt,value
2024-01-16T00:03:41.502Z,6.27
2024-01-16T00:08:46.439Z,7.55
2024-01-16T00:13:52.167Z,12.22
2024-01-16T00:19:01.307Z,8.02
2024-01-16T00:24:07.841Z,7.87
2024-01-16T00:29:13.626Z,12.81
2024-01-16T00:34:24.400Z,7.33
2024-01-16T00:39:29.538Z,13.35
2024-01-16T00:44:33.269Z,17.19
2024-01-16T00:49:37.997Z,9.80
2024-01-16T00:54:47.671Z,11.22
2024-01-16T00:59:58.792Z,11.92
2024-01-16T01:05:02.774Z,14.23
2024-01-16T01:10:11.619Z,13.60
2024-01-16T01:15:22.999Z,15.40
2024-01-16T01:20:29.052Z,9.82
2024-01-16T01:25:33.972Z,5.57
2024-01-16T01:30:37.568Z,10.45
2024-01-16T01:35:41.445Z,13.70
2024-01-16T01:40:48.585Z,8.02
2024-01-16T01:45:59.451Z,10.60
2024-01-16T01:51:04.187Z,10.36
2024-01-16T01:56:11.027Z,14.21
2024-01-16T02:01:15.960Z,9.42
2024-01-16T02:06:22.774Z,6.02
2024-01-16T02:11:29.878Z,9.49
2024-01-16T02:16:38.270Z,12.17
2024-01-16T02:21:45.876Z,9.68
2024-01-16T02:26:54.991Z,6.91
2024-01-16T02:32:00.410Z,11.87
2024-01-16T02:37:06.465Z,6.98
2024-01-16T02:42:13.848Z,7.19
2024-01-16T02:47:21.613Z,11.89
2024-01-16T02:52:25.180Z,10.09
2024-01-16T02:57:32.676Z,7.61
2024-01-16T03:02:36.618Z,8.41
2024-01-16T03:07:40.262Z,14.34
2024-01-16T03:12:49.713Z,7.93
2024-01-16T03:18:00.212Z,5.73
2024-01-16T03:23:06.458Z,9.56
2024-01-16T03:28:11.885Z,10.47
2024-01-16T03:33:17.896Z,5.19
2024-01-16T03:38:21.464Z,4.60
2024-01-16T03:43:26.304Z,3.99
2024-01-16T03:48:29.840Z,7.08
2024-01-16T03:53:33.337Z,12.69
2024-01-16T03:58:38.048Z,4.67
2024-01-16T04:03:43.871Z,3.80
2024-01-16T04:08:48.103Z,4.49
2024-01-16T04:13:55.568Z,3.18
2024-01-16T04:18:59.025Z,3.81
2024-01-16T04:24:04.942Z,3.38
2024-01-16T04:29:10.940Z,3.98
2024-01-16T04:34:14.479Z,4.18
2024-01-16T04:39:19.998Z,3.60
2024-01-16T04:44:24.855Z,4.05
2024-01-16T04:49:30.773Z,6.74
2024-01-16T04:54:34.170Z,4.47
2024-01-16T04:59:38.960Z,3.68
2024-01-16T05:04:42.303Z,4.42
2024-01-16T05:09:47.928Z,2.93
2024-01-16T05:14:52.870Z,4.56
2024-01-16T05:20:01.363Z,2.87
2024-01-16T05:25:05.076Z,3.56
2024-01-16T05:30:12.847Z,3.73
2024-01-16T05:35:19.158Z,3.38
2024-01-16T05:40:24.866Z,4.13
2024-01-16T05:45:29.708Z,3.91
2024-01-16T05:50:36.125Z,4.48
2024-01-16T05:55:39.633Z,3.85
2024-01-16T06:00:46.885Z,4.42
2024-01-16T06:05:50.509Z,4.88
2024-01-16T06:10:53.910Z,5.03
2024-01-16T06:16:01.017Z,4.04
2024-01-16T06:21:04.952Z,5.41
2024-01-16T06:26:10.167Z,5.54
2024-01-16T06:31:18.407Z,5.40
2024-01-16T06:36:21.884Z,5.31
2024-01-16T06:41:25.687Z,6.04
2024-01-16T06:46:32.766Z,5.40
2024-01-16T06:51:38.439Z,4.86
2024-01-16T06:56:42.007Z,6.45
2024-01-16T07:01:49.850Z,10.17
2024-01-16T07:06:53.459Z,13.92
2024-01-16T07:11:57.699Z,7.64
2024-01-16T07:17:02.573Z,8.40
2024-01-16T07:22:08.903Z,8.15
2024-01-16T07:27:12.298Z,8.53
2024-01-16T07:32:19.645Z,6.90
2024-01-16T07:37:23.249Z,14.05
2024-01-16T07:42:35.375Z,59.83
2024-01-16T07:47:40.877Z,9.34
2024-01-16T07:52:47.137Z,11.36
2024-01-16T07:57:52.893Z,9.20
2024-01-16T08:02:57.860Z,10.14
2024-01-16T08:08:01.480Z,12.67
2024-01-16T08:13:05.679Z,9.10
2024-01-16T08:18:10.719Z,10.01
2024-01-16T08:23:14.786Z,8.60
2024-01-16T08:28:20.490Z,11.42
2024-01-16T08:33:37.517Z,8.39
2024-01-16T08:38:47.081Z,6.42
2024-01-16T08:43:56.281Z,7.72
2024-01-16T08:49:03.382Z,8.76
2024-01-16T08:54:09.282Z,7.64
2024-01-16T08:59:15.290Z,8.93
2024-01-16T09:04:22.396Z,12.83
2024-01-16T09:09:27.371Z,14.70
2024-01-16T09:14:33.557Z,15.30
2024-01-16T09:19:43.205Z,10.00
2024-01-16T09:24:46.861Z,11.70
2024-01-16T09:29:52.988Z,19.89
2024-01-16T09:34:59.605Z,16.81
2024-01-16T09:40:03.405Z,11.65
2024-01-16T09:45:11.723Z,9.85
2024-01-16T09:50:18.594Z,13.30
2024-01-16T09:55:24.718Z,7.79
2024-01-16T10:00:28.473Z,8.52
2024-01-16T10:05:37.345Z,6.88
2024-01-16T10:10:47.833Z,8.60
2024-01-16T10:15:56.612Z,6.01
2024-01-16T10:21:01.957Z,8.52
2024-01-16T10:26:09.008Z,8.65
2024-01-16T10:31:13.589Z,6.52
2024-01-16T10:36:22.284Z,6.22
2024-01-16T10:41:30.978Z,5.84
2024-01-16T10:46:38.019Z,8.37
2024-01-16T10:51:47.152Z,11.11
2024-01-16T10:56:52.208Z,10.54
2024-01-16T11:01:58.569Z,13.97
2024-01-16T11:07:06.994Z,16.35
2024-01-16T11:12:12.262Z,12.46
2024-01-16T11:17:19.943Z,8.96
2024-01-16T11:22:29.557Z,11.12
2024-01-16T11:27:33.389Z,7.41
2024-01-16T11:32:42.593Z,6.74
2024-01-16T11:37:49.606Z,13.13
2024-01-16T11:42:57.103Z,20.60
2024-01-16T11:48:10.687Z,11.26
2024-01-16T11:53:40.484Z,9.19
2024-01-16T11:58:50.844Z,10.28
2024-01-16T12:04:03.977Z,11.10
2024-01-16T12:09:17.482Z,7.91
2024-01-16T12:14:22.933Z,10.02
2024-01-16T12:19:26.524Z,14.65
2024-01-16T12:24:31.549Z,12.04
2024-01-16T12:29:38.261Z,10.72
2024-01-16T12:34:50.666Z,9.58
2024-01-16T12:39:56.176Z,9.49
2024-01-16T12:45:02.365Z,10.56
2024-01-16T12:50:13.585Z,10.03
2024-01-16T12:55:19.088Z,63.79
2024-01-16T13:00:28.808Z,9.44
2024-01-16T13:05:33.033Z,15.04
2024-01-16T13:10:40.088Z,7.62
2024-01-16T13:15:46.308Z,14.49
2024-01-16T13:20:50.040Z,9.97
2024-01-16T13:25:56.809Z,8.99
2024-01-16T13:31:00.529Z,8.67
2024-01-16T13:36:08.955Z,8.84
2024-01-16T13:41:13.892Z,9.25
2024-01-16T13:46:31.409Z,9.06
2024-01-16T13:51:46.074Z,8.60
2024-01-16T13:57:03.122Z,10.93
2024-01-16T14:02:10.970Z,11.06
2024-01-16T14:07:14.682Z,12.06
2024-01-16T14:12:22.145Z,10.51
2024-01-16T14:17:39.083Z,10.37
2024-01-16T14:22:45.431Z,24.27
2024-01-16T14:27:59.108Z,11.37
2024-01-16T14:33:03.504Z,11.29
2024-01-16T14:38:07.147Z,12.20
2024-01-16T14:43:11.930Z,10.40
2024-01-16T14:48:17.178Z,11.67
2024-01-16T14:53:20.876Z,10.57
2024-01-16T14:58:25.713Z,12.32
2024-01-16T15:03:31.522Z,11.48
2024-01-16T15:08:37.264Z,11.87
2024-01-16T15:13:42.825Z,12.26
2024-01-16T15:18:49.392Z,17.44
2024-01-16T15:23:55.234Z,12.70
2024-01-16T15:29:02.841Z,12.85
2024-01-16T15:34:06.708Z,11.88
2024-01-16T15:39:10.181Z,11.49
2024-01-16T15:44:15.458Z,10.99
2024-01-16T15:49:22.561Z,11.82
2024-01-16T15:54:26.156Z,22.36
2024-01-16T15:59:31.146Z,13.24
2024-01-16T16:04:38.283Z,23.46
2024-01-16T16:09:42.541Z,17.69
2024-01-16T16:15:00.478Z,16.51
2024-01-16T16:20:07.224Z,11.49
2024-01-16T16:25:15.346Z,13.99
2024-01-16T16:30:21.602Z,22.18
2024-01-16T16:35:27.757Z,16.49
2024-01-16T16:40:38.423Z,30.70
2024-01-16T16:45:45.804Z,15.60
2024-01-16T16:50:49.349Z,13.11
2024-01-16T16:55:53.126Z,14.37
2024-01-16T17:00:57.969Z,13.44
2024-01-16T17:06:04.320Z,11.02
2024-01-16T17:11:08.781Z,13.93
2024-01-16T17:16:23.849Z,13.05
2024-01-16T17:21:27.302Z,12.37
2024-01-16T17:26:33.318Z,11.68
2024-01-16T17:31:40.264Z,12.33
2024-01-16T17:36:47.633Z,13.37
2024-01-16T17:41:51.112Z,12.98
2024-01-16T17:46:56.230Z,14.01
2024-01-16T17:52:05.165Z,14.35
2024-01-16T17:57:18.939Z,20.00
2024-01-16T18:02:23.816Z,14.61
2024-01-16T18:07:27.285Z,15.31
2024-01-16T18:12:34.135Z,15.85
2024-01-16T18:17:41.831Z,17.45
2024-01-16T18:22:48.223Z,20.61
2024-01-16T18:27:56.251Z,22.38
2024-01-16T18:33:04.607Z,33.74
2024-01-16T18:38:09.165Z,21.28
2024-01-16T18:43:16.291Z,19.77
2024-01-16T18:48:22.013Z,22.05
2024-01-16T18:53:28.851Z,22.71
2024-01-16T18:58:32.330Z,23.51
2024-01-16T19:03:37.576Z,22.78
2024-01-16T19:08:43.279Z,22.93
2024-01-16T19:13:48.331Z,24.23
2024-01-16T19:18:53.250Z,24.03
2024-01-16T19:23:57.101Z,24.06
2024-01-16T19:29:00.621Z,30.13
2024-01-16T19:34:08.906Z,25.22
2024-01-16T19:39:15.743Z,25.69
2024-01-16T19:44:21.301Z,26.71
2024-01-16T19:49:26.930Z,27.74
2024-01-16T19:54:33.575Z,48.48
2024-01-16T19:59:40.041Z,32.71
2024-01-16T20:04:44.948Z,27.70
2024-01-16T20:09:51.290Z,32.35
2024-01-16T20:14:57.571Z,29.28
2024-01-16T20:20:06.768Z,30.41
2024-01-16T20:25:13.824Z,30.63
2024-01-16T20:30:20.528Z,31.93
2024-01-16T20:35:30.020Z,35.87
2024-01-16T20:40:38.405Z,39.64
2024-01-16T20:45:41.955Z,33.64
2024-01-16T20:50:46.841Z,33.92
2024-01-16T20:55:52.450Z,33.41
2024-01-16T21:00:55.887Z,38.52
2024-01-16T21:06:05.233Z,32.87
2024-01-16T21:11:10.134Z,32.67
2024-01-16T21:16:13.952Z,32.47
2024-01-16T21:21:18.752Z,33.13
2024-01-16T21:26:25.228Z,33.16
2024-01-16T21:31:31.145Z,31.00
2024-01-16T21:36:39.791Z,33.15
2024-01-16T21:41:48.488Z,38.51
2024-01-16T21:46:55.905Z,35.84
2024-01-16T21:52:07.152Z,36.87
2024-01-16T21:57:14.425Z,39.87
2024-01-16T22:02:21.104Z,33.99
2024-01-16T22:07:28.741Z,37.35
2024-01-16T22:12:32.223Z,39.88
2024-01-16T22:17:38.206Z,37.55
2024-01-16T22:22:45.325Z,39.88
2024-01-16T22:27:49.214Z,41.51
2024-01-16T22:32:52.999Z,44.21
2024-01-16T22:38:00.254Z,51.96
2024-01-16T22:43:04.444Z,54.29
2024-01-16T22:48:13.080Z,59.30
2024-01-16T22:53:20.779Z,52.88
2024-01-16T22:58:24.651Z,51.71
2024-01-16T23:03:28.399Z,55.18
2024-01-16T23:08:35.376Z,62.37
2024-01-16T23:13:39.000Z,53.27
2024-01-16T23:18:42.609Z,55.48
2024-01-16T23:23:48.682Z,71.11
2024-01-16T23:28:54.858Z,59.29
2024-01-16T23:34:00.546Z,60.84
2024-01-16T23:39:12.000Z,61.97
2024-01-16T23:44:18.630Z,63.58
2024-01-16T23:49:26.562Z,65.55
2024-01-16T23:54:33.933Z,69.17
2024-01-16T23:59:39.085Z,71.42
